Flight Track Log - Related Links

Times and Time Zones

All times are in EDT time to prevent confusion due to time zone crossing. See the UAL33 flight status page for this flight to view local times or setup timezone preferences in your user account.

Time Position Orientation Groundspeed Altitude Reporting Facility
EDT Latitude Longitude Course Direction KTS MPH feet Rate Location/Type
Mon 10:38:57 PM 41.9650 -87.9460 270° West 181 208 2,000  Level FlightAware ADS-B
Mon 10:39:05 PM 41.9600 -87.9530 226° Southwest 191 220 2,300 2,100 Climbing FlightAware ADS-B
Mon 10:39:17 PM 41.9520 -87.9620 220° Southwest 206 237 2,700 2,182 Climbing FlightAware ADS-B
Mon 10:39:38 PM 41.9340 -87.9790 215° Southwest 236 272 3,500 2,500 Climbing FlightAware ADS-B
Mon 10:39:53 PM 41.9200 -87.9920 215° Southwest 252 290 4,200 3,257 Climbing FlightAware ADS-B
Mon 10:40:13 PM 41.9010 -88.0110 217° Southwest 262 302 5,400 3,643 Climbing FlightAware ADS-B
Mon 10:40:21 PM 41.8920 -88.0180 210° Southwest 267 307 5,900 3,750 Climbing FlightAware ADS-B
Mon 10:40:29 PM 41.8830 -88.0240 206° Southwest 271 312 6,400 3,500 Climbing FlightAware ADS-B
Mon 10:40:33 PM 41.8780 -88.0250 188° South 274 315 6,600 3,500 Climbing FlightAware ADS-B
Mon 10:40:41 PM 41.8690 -88.0250 180° South 275 316 7,100 4,091 Climbing FlightAware ADS-B
Mon 10:40:55 PM 41.8490 -88.0250 180° South 278 320 8,100 3,833 Climbing FlightAware ADS-B
Mon 10:41:17 PM 41.8210 -88.0230 177° South 285 328 9,400 3,412 Climbing FlightAware ADS-B
Mon 10:41:46 PM 41.7820 -88.0210 178° South 294 338 11,000 3,380 Climbing FlightAware ADS-B
Mon 10:42:28 PM 41.7240 -88.0230 181° South 313 360 13,400 2,919 Climbing FlightAware ADS-B
Mon 10:43:00 PM 41.6770 -88.0230 180° South 322 371 14,600 2,912 Climbing FlightAware ADS-B
Mon 10:43:36 PM 41.6230 -88.0240 181° South 330 380 16,700 2,486 Climbing FlightAware ADS-B
Mon 10:44:10 PM 41.5680 -88.0260 182° South 371 427 17,500 1,853 Climbing FlightAware ADS-B
Mon 10:44:44 PM 41.5090 -88.0270 181° South 395 455 18,800 2,486 Climbing FlightAware ADS-B
Mon 10:45:20 PM 41.4410 -88.0290 181° South 407 468 20,400 2,583 Climbing FlightAware ADS-B
Mon 10:45:56 PM 41.3710 -88.0420 188° South 420 483 21,900 2,250 Climbing FlightAware ADS-B
Mon 10:46:32 PM 41.3030 -88.0670 195° South 438 504 23,100 2,250 Climbing FlightAware ADS-B
Mon 10:47:08 PM 41.2420 -88.1180 212° Southwest 442 509 24,600 2,471 Climbing FlightAware ADS-B
Mon 10:47:40 PM 41.1840 -88.1590 208° Southwest 452 520 25,900 2,314 Climbing FlightAware ADS-B
Mon 10:48:18 PM 41.1110 -88.2090 207° Southwest 462 532 27,300 2,270 Climbing FlightAware ADS-B
Mon 10:48:54 PM 41.0440 -88.2550 207° Southwest 466 536 28,700 2,294 Climbing FlightAware ADS-B
Mon 10:49:26 PM 40.9800 -88.2990 207° Southwest 470 541 29,900 2,118 Climbing FlightAware ADS-B
Mon 10:50:02 PM 40.9130 -88.3450 207° Southwest 475 547 31,100 2,057 Climbing FlightAware ADS-B
Mon 10:50:36 PM 40.8450 -88.3900 207° Southwest 479 551 32,300 1,886 Climbing FlightAware ADS-B
Mon 10:51:12 PM 40.7740 -88.4380 207° Southwest 484 557 33,300 1,667 Climbing FlightAware ADS-B
Mon 10:51:48 PM 40.7050 -88.4850 207° Southwest 489 563 34,300 2,000 Climbing FlightAware ADS-B
Mon 10:52:24 PM 40.6260 -88.5380 207° Southwest 482 555 35,700 2,382 Climbing FlightAware ADS-B
Mon 10:52:56 PM 40.5650 -88.5790 207° Southwest 470 541 37,000 1,853 Climbing FlightAware ADS-B
Mon 10:53:32 PM 40.4970 -88.6250 207° Southwest 472 543 37,800 1,250 Climbing FlightAware ADS-B
Mon 10:54:08 PM 40.4290 -88.6700 207° Southwest 475 547 38,500 1,167 Climbing FlightAware ADS-B
Mon 10:54:44 PM 40.3540 -88.7200 207° Southwest 477 549 39,200 1,182 Climbing FlightAware ADS-B
Mon 10:55:14 PM 40.2950 -88.7590 207° Southwest 476 548 39,800 706 Climbing FlightAware ADS-B
Mon 10:55:52 PM 40.2180 -88.8100 207° Southwest 480 552 40,000 162 Climbing FlightAware ADS-B
Mon 10:56:28 PM 40.1480 -88.8560 207° Southwest 480 552 40,000  Level FlightAware ADS-B
Mon 10:57:00 PM 40.0870 -88.8960 207° Southwest 481 554 40,000  Level FlightAware ADS-B
Mon 10:57:36 PM 40.0130 -88.9450 207° Southwest 482 555 40,000  Level FlightAware ADS-B
Mon 10:58:12 PM 39.9420 -88.9920 207° Southwest 483 556 40,000  Level FlightAware ADS-B
Mon 10:58:48 PM 39.8680 -89.0410 207° Southwest 486 559 40,000  Level FlightAware ADS-B
Mon 10:59:20 PM 39.8050 -89.0810 206° Southwest 486 559 40,000  Level FlightAware ADS-B
Mon 10:59:56 PM 39.7310 -89.1300 207° Southwest 487 560 40,000  Level FlightAware ADS-B
Mon 11:00:34 PM 39.6570 -89.1780 207° Southwest 488 562 40,000  Level FlightAware ADS-B
Mon 11:01:04 PM 39.5940 -89.2190 207° Southwest 490 564 40,000  Level FlightAware ADS-B
Mon 11:01:44 PM 39.5140 -89.2710 207° Southwest 487 560 40,000  Level FlightAware ADS-B
Mon 11:02:16 PM 39.4490 -89.3130 207° Southwest 486 559 40,000  Level FlightAware ADS-B
Mon 11:02:48 PM 39.3850 -89.3540 206° Southwest 486 559 40,000  Level FlightAware ADS-B
Mon 11:03:26 PM 39.3080 -89.4040 207° Southwest 485 558 40,000  Level FlightAware ADS-B
Mon 11:04:02 PM 39.2370 -89.4490 206° Southwest 484 557 40,000  Level FlightAware ADS-B
Mon 11:04:38 PM 39.1650 -89.4960 207° Southwest 483 556 40,000  Level FlightAware ADS-B
Mon 11:05:10 PM 39.1000 -89.5370 206° Southwest 484 557 40,000  Level FlightAware ADS-B
Mon 11:05:46 PM 39.0310 -89.5810 206° Southwest 485 558 40,000  Level FlightAware ADS-B
Mon 11:06:22 PM 38.9570 -89.6280 206° Southwest 485 558 40,000  Level FlightAware ADS-B
Mon 11:06:58 PM 38.8820 -89.6760 206° Southwest 486 559 40,000  Level FlightAware ADS-B
Mon 11:07:38 PM 38.8010 -89.7270 206° Southwest 485 558 40,000  Level FlightAware ADS-B
Mon 11:08:13 PM 38.7350 -89.7680 206° Southwest 485 558 40,000  Level FlightAware ADS-B
Mon 11:08:50 PM 38.6560 -89.8190 207° Southwest 487 560 40,000  Level FlightAware ADS-B
Mon 11:09:22 PM 38.5910 -89.8590 206° Southwest 488 562 40,000  Level FlightAware ADS-B
Mon 11:09:59 PM 38.5200 -89.9040 206° Southwest 488 562 40,000  Level FlightAware ADS-B
Mon 11:10:34 PM 38.4460 -89.9500 206° Southwest 489 563 40,000  Level FlightAware ADS-B
Mon 11:11:20 PM 38.3630 -90.0020 206° Southwest 489 563 40,000  Level FlightAware ADS-B
Mon 11:12:02 PM 38.2690 -90.0610 206° Southwest 490 564 40,000  Level FlightAware ADS-B
Mon 11:12:38 PM 38.1950 -90.1060 206° Southwest 491 565 40,000  Level FlightAware ADS-B
Mon 11:13:10 PM 38.1310 -90.1470 207° Southwest 493 567 40,000  Level FlightAware ADS-B
Mon 11:13:52 PM 38.0430 -90.2010 206° Southwest 495 570 40,000  Level FlightAware ADS-B
Mon 11:14:22 PM 37.9790 -90.2410 206° Southwest 495 570 40,000  Level FlightAware ADS-B
Mon 11:14:48 PM 37.9280 -90.2720 206° Southwest 495 570 40,000  Level FlightAware ADS-B
Mon 11:15:30 PM 37.8520 -90.3170 205° Southwest 495 570 40,000  Level FlightAware ADS-B
Mon 11:16:06 PM 37.7880 -90.3550 205° Southwest 495 570 40,000  Level FlightAware ADS-B
Mon 11:16:42 PM 37.7250 -90.3920 205° Southwest 495 570 40,000  Level FlightAware ADS-B
Mon 11:17:19 PM 37.6590 -90.4310 205° Southwest 495 570 40,000  Level FlightAware ADS-B
Mon 11:17:55 PM 37.5960 -90.4680 205° Southwest 495 570 40,000  Level FlightAware ADS-B
Mon 11:18:31 PM 37.5320 -90.5060 205° Southwest 495 570 40,000  Level FlightAware ADS-B
Mon 11:19:07 PM 37.4690 -90.5430 205° Southwest 495 570 40,000  Level FlightAware ADS-B
Mon 11:19:41 PM 37.3310 -90.6360 208° Southwest 487 560 40,000  Level FlightAware ADS-B
Mon 11:20:15 PM 37.2590 -90.6790 205° Southwest 487 560 40,000  Level FlightAware ADS-B
Mon 11:20:49 PM 37.1890 -90.7220 206° Southwest 488 562 40,000  Level FlightAware ADS-B
Mon 11:21:25 PM 37.1160 -90.7660 206° Southwest 490 564 40,000  Level FlightAware ADS-B
Mon 11:22:01 PM 37.0410 -90.8100 205° Southwest 492 566 40,000  Level FlightAware ADS-B
Mon 11:22:34 PM 36.9750 -90.8500 206° Southwest 494 568 40,000  Level FlightAware ADS-B
Mon 11:23:11 PM 36.8980 -90.8960 206° Southwest 498 573 40,000  Level FlightAware ADS-B
Mon 11:23:45 PM 36.8280 -90.9380 206° Southwest 500 575 40,000  Level FlightAware ADS-B
Mon 11:24:23 PM 36.7480 -90.9850 205° Southwest 501 577 40,000  Level FlightAware ADS-B
Mon 11:24:55 PM 36.6790 -91.0260 205° Southwest 501 577 40,000  Level FlightAware ADS-B
Mon 11:25:27 PM 36.6120 -91.0660 206° Southwest 500 575 40,000  Level FlightAware ADS-B
Mon 11:26:07 PM 36.5290 -91.1150 205° Southwest 501 577 40,000  Level FlightAware ADS-B
Mon 11:26:43 PM 36.4530 -91.1600 205° Southwest 502 578 40,000  Level FlightAware ADS-B
Mon 11:27:15 PM 36.3870 -91.1990 205° Southwest 501 577 40,000  Level FlightAware ADS-B
Mon 11:27:51 PM 36.3100 -91.2440 205° Southwest 500 575 40,000  Level FlightAware ADS-B
Mon 11:28:27 PM 36.2360 -91.2870 205° Southwest 500 575 40,000  Level FlightAware ADS-B
Mon 11:29:07 PM 36.1500 -91.3270 201° Southwest 506 582 40,000  Level FlightAware ADS-B
Mon 11:29:53 PM 36.0450 -91.3630 195° South 507 583 40,000  Level FlightAware ADS-B
Mon 11:30:25 PM 35.9710 -91.3870 195° South 506 582 40,000  Level FlightAware ADS-B
Mon 11:31:01 PM 35.8910 -91.4140 195° South 506 582 40,000  Level FlightAware ADS-B
Mon 11:31:37 PM 35.8080 -91.4410 195° South 504 580 40,000  Level FlightAware ADS-B
Mon 11:32:13 PM 35.7280 -91.4680 195° South 502 578 40,000  Level FlightAware ADS-B
Mon 11:32:49 PM 35.6470 -91.4940 195° South 502 578 40,000  Level FlightAware ADS-B
Mon 11:33:17 PM 35.5850 -91.5150 195° South 504 580 40,000  Level FlightAware ADS-B
Mon 11:34:03 PM 35.5050 -91.5410 195° South 504 580 40,000  Level FlightAware ADS-B
Mon 11:34:39 PM 35.4360 -91.5640 195° South 504 580 40,000  Level FlightAware ADS-B
Mon 11:35:23 PM 35.3130 -91.6030 195° South 500 575 40,000  Level FlightAware ADS-B
Mon 11:35:59 PM 35.2450 -91.6240 194° South 500 575 40,000  Level FlightAware ADS-B
Mon 11:36:51 PM 35.1170 -91.6680 196° South 501 577 40,000  Level FlightAware ADS-B
Mon 11:37:27 PM 35.0490 -91.6900 195° South 501 577 40,000  Level FlightAware ADS-B
Mon 11:38:03 PM 34.9800 -91.7130 195° South 501 577 40,000  Level FlightAware ADS-B
Mon 11:38:39 PM 34.9120 -91.7350 195° South 501 577 40,000  Level FlightAware ADS-B
Mon 11:39:16 PM 34.8410 -91.7580 195° South 501 577 40,000  Level FlightAware ADS-B
Mon 11:39:52 PM 34.7730 -91.7810 196° South 501 577 40,000  Level FlightAware ADS-B
Mon 11:40:29 PM 34.7020 -91.8040 195° South 501 577 40,000  Level FlightAware ADS-B
Mon 11:41:05 PM 34.6340 -91.8260 195° South 501 577 40,000  Level FlightAware ADS-B
Mon 11:41:41 PM 34.5650 -91.8480 195° South 501 577 40,000  Level FlightAware ADS-B
Mon 11:42:18 PM 34.4950 -91.8710 195° South 501 577 40,000  Level FlightAware ADS-B
Mon 11:42:54 PM 34.4270 -91.8930 195° South 501 577 40,000  Level FlightAware ADS-B
Mon 11:43:30 PM 34.3580 -91.9160 195° South 501 577 40,000  Level FlightAware ADS-B
Mon 11:44:06 PM 34.2900 -91.9380 195° South 501 577 40,000  Level FlightAware ADS-B
Mon 11:44:42 PM 34.2210 -91.9600 195° South 501 577 40,000  Level FlightAware ADS-B
Mon 11:45:18 PM 34.1530 -91.9820 195° South 501 577 40,000  Level FlightAware ADS-B
Mon 11:45:54 PM 34.0840 -92.0040 195° South 501 577 40,000  Level FlightAware ADS-B
Mon 11:46:34 PM 33.7689 -92.1042 195° South 519 597 40,000  Level Fort Worth Center
Mon 11:47:34 PM 33.6289 -92.1500 195° South 524 603 40,000  Level Fort Worth Center
Mon 11:48:34 PM 33.5075 -92.1922 196° South 524 603 40,000  Level Fort Worth Center
Mon 11:49:34 PM 33.3697 -92.2353 195° South 518 596 40,000  Level Fort Worth Center
Mon 11:50:34 PM 33.2317 -92.2806 195° South 518 596 40,000  Level Fort Worth Center
Mon 11:51:34 PM 33.0936 -92.3231 194° South 525 604 40,000  Level Fort Worth Center
Mon 11:57:15 PM 32.2591 -92.5879 194° South 531 611 40,000  Level FlightAware ADS-B
Mon 11:57:45 PM 32.1868 -92.6106 195° South 532 612 40,000  Level FlightAware ADS-B
Tue 12:02:56 AM 31.5579 -93.0789 212° Southwest 525 604 40,000  Level FlightAware ADS-B
Tue 12:03:26 AM 31.5016 -93.1330 219° Southwest 525 604 40,000 -200 Level FlightAware ADS-B
Tue 12:03:56 AM 31.4451 -93.1871 219° Southwest 528 608 39,800 -1,200 Descending FlightAware ADS-B
Tue 12:04:26 AM 31.3878 -93.2421 219° Southwest 526 605 38,800 -2,000 Descending FlightAware ADS-B
Tue 12:04:56 AM 31.3314 -93.2959 219° Southwest 524 603 37,800 -2,100 Descending FlightAware ADS-B
Tue 12:05:26 AM 31.2754 -93.3494 219° Southwest 520 598 36,700 -2,262 Descending FlightAware ADS-B
Tue 12:05:57 AM 31.2190 -93.4033 219° Southwest 517 595 35,500 -2,459 Descending FlightAware ADS-B
Tue 12:06:27 AM 31.1633 -93.4562 219° Southwest 517 595 34,200 -2,754 Descending FlightAware ADS-B
Tue 12:06:58 AM 31.1057 -93.5111 219° Southwest 518 596 32,700 -2,951 Descending FlightAware ADS-B
Tue 12:07:28 AM 31.0502 -93.5635 219° Southwest 519 597 31,200 -2,800 Descending FlightAware ADS-B
Tue 12:07:58 AM 30.9937 -93.6168 219° Southwest 512 589 29,900 -2,400 Descending FlightAware ADS-B
Tue 12:08:28 AM 30.9384 -93.6693 219° Southwest 502 578 28,800 -2,262 Descending FlightAware ADS-B
Tue 12:08:59 AM 30.8844 -93.7203 219° Southwest 493 567 27,600 -2,459 Descending FlightAware ADS-B
Tue 12:09:29 AM 30.8311 -93.7704 219° Southwest 488 562 26,300 -2,500 Descending FlightAware ADS-B
Tue 12:09:59 AM 30.7782 -93.8204 219° Southwest 480 552 25,100 -2,400 Descending FlightAware ADS-B
Tue 12:10:29 AM 30.7267 -93.8689 219° Southwest 471 542 23,900 -2,400 Descending FlightAware ADS-B
Tue 12:12:04 AM 30.5706 -94.0152 219° Southwest 443 510 20,100 -2,432 Descending FlightAware ADS-B
Tue 12:13:34 AM 30.4299 -94.1465 219° Southwest 420 483 16,400 -2,370 Descending FlightAware ADS-B
Tue 12:14:03 AM 30.3871 -94.1865 219° Southwest 411 473 15,400 -2,108 Descending FlightAware ADS-B
Tue 12:14:11 AM 30.3754 -94.1983 221° Southwest 408 470 15,100 -2,211 Descending FlightAware ADS-B
Tue 12:14:22 AM 30.3619 -94.2147 226° Southwest 406 467 14,700 -2,609 Descending FlightAware ADS-B
Tue 12:14:34 AM 30.3473 -94.2360 232° Southwest 403 464 14,100 -1,903 Descending FlightAware ADS-B
Tue 12:16:47 AM 30.2319 -94.4730 241° Southwest 346 398 10,100 -1,640 Descending FlightAware ADS-B
Tue 12:17:04 AM 30.2192 -94.4994 241° Southwest 328 377 10,000 -194 Descending FlightAware ADS-B
Tue 12:17:18 AM 30.2088 -94.5209 241° Southwest 315 362 10,000 -136 Level FlightAware ADS-B
Tue 12:17:48 AM 30.1887 -94.5623 241° Southwest 289 333 9,900 -533 Descending FlightAware ADS-B
Tue 12:18:03 AM 30.1790 -94.5824 241° Southwest 286 329 9,600 -1,000 Descending FlightAware ADS-B
Tue 12:18:18 AM 30.1693 -94.6025 241° Southwest 282 325 9,400 -1,083 Descending FlightAware ADS-B
Tue 12:19:15 AM 30.1330 -94.6773 241° Southwest 275 316 8,300 -1,165 Descending FlightAware ADS-B
Tue 12:20:01 AM 30.1048 -94.7354 240° Southwest 270 311 7,400 -1,180 Descending FlightAware ADS-B
Tue 12:20:16 AM 30.0957 -94.7543 241° Southwest 270 311 7,100 -1,149 Descending FlightAware ADS-B
Tue 12:20:48 AM 30.0766 -94.7934 241° Southwest 268 308 6,500 -1,161 Descending FlightAware ADS-B
Tue 12:21:18 AM 30.0583 -94.8312 241° Southwest 266 306 5,900 -1,200 Descending FlightAware ADS-B
Tue 12:21:33 AM 30.0489 -94.8505 241° Southwest 263 303 5,600 -968 Descending FlightAware ADS-B
Tue 12:21:49 AM 30.0400 -94.8687 241° Southwest 261 300 5,400 -1,017 Descending FlightAware ADS-B
Tue 12:22:32 AM 30.0146 -94.9207 241° Southwest 255 293 4,600 -1,059 Descending FlightAware ADS-B
Tue 12:22:40 AM 30.0105 -94.9305 245° Southwest 256 295 4,500 -800 Descending FlightAware ADS-B
Tue 12:22:47 AM 30.0079 -94.9396 253° West 256 295 4,400 -1,200 Descending FlightAware ADS-B
Tue 12:22:50 AM 30.0070 -94.9435 255° West 257 296 4,300 -2,000 Descending FlightAware ADS-B
Tue 12:22:53 AM 30.0061 -94.9481 257° West 257 296 4,200 -1,091 Descending FlightAware ADS-B
Tue 12:23:01 AM 30.0048 -94.9593 264° West 258 297 4,100 -375 Descending FlightAware ADS-B
Tue 12:23:41 AM 30.0014 -95.0132 265° West 257 296 3,900 -214 Descending FlightAware ADS-B
Tue 12:23:57 AM 30.0000 -95.0341 266° West 251 289 3,900  Level FlightAware ADS-B
Tue 12:24:12 AM 29.9987 -95.0543 266° West 237 273 3,900 -200 Level FlightAware ADS-B
Tue 12:24:27 AM 29.9975 -95.0731 266° West 227 261 3,800 -511 Descending FlightAware ADS-B
Tue 12:24:59 AM 29.9941 -95.1101 261° West 208 239 3,500 -486 Descending FlightAware ADS-B
Tue 12:25:04 AM 29.9935 -95.1158 263° West 206 237 3,500 -800 Level FlightAware ADS-B
Tue 12:25:14 AM 29.9930 -95.1269 267° West 204 235 3,300 -1,385 Descending FlightAware ADS-B
Tue 12:25:30 AM 29.9933 -95.1435 272° West 199 229 2,900 -1,135 Descending FlightAware ADS-B
Tue 12:25:51 AM 29.9937 -95.1646 270° West 181 208 2,600 -837 Descending FlightAware ADS-B
Tue 12:26:13 AM 29.9935 -95.1854 269° West 168 193 2,300 -774 Descending FlightAware ADS-B
Tue 12:26:22 AM 29.9935 -95.1928 270° West 163 188 2,200 -1,059 Descending FlightAware ADS-B
Tue 12:26:30 AM 29.9937 -95.1999 272° West 158 182 2,000 -1,000 Descending FlightAware ADS-B
Tue 12:26:40 AM 29.9937 -95.2080 270° West 150 173 1,900 -857 Descending FlightAware ADS-B
Tue 12:26:51 AM 29.9935 -95.2168 268° West 143 165 1,700 -720 Descending FlightAware ADS-B
Tue 12:27:05 AM 29.9933 -95.2271 269° West 142 163 1,600 -600 Descending FlightAware ADS-B
Tue 12:27:11 AM 29.9933 -95.2317 270° West 143 165 1,500 -923 Descending FlightAware ADS-B
Tue 12:27:18 AM 29.9933 -95.2375 270° West 144 166 1,400 -783 Descending FlightAware ADS-B
Tue 12:27:34 AM 29.9936 -95.2493 272° West 145 167 1,200 -720 Descending FlightAware ADS-B
Tue 12:27:43 AM 29.9936 -95.2567 270° West 145 167 1,100 -667 Descending FlightAware ADS-B
Tue 12:27:52 AM 29.9936 -95.2636 270° West 144 166 1,000 -818 Descending FlightAware ADS-B
Tue 12:28:05 AM 29.9935 -95.2735 269° West 143 165 800 -692 Descending FlightAware ADS-B
Tue 12:28:18 AM 29.9934 -95.2833 269° West 143 165 700 -600 Descending FlightAware ADS-B
Tue 12:28:25 AM 29.9934 -95.2888 270° West 143 165 600 -857 Descending FlightAware ADS-B
Tue 12:28:39 AM 29.9935 -95.2990 271° West 143 165 400 -828 Descending FlightAware ADS-B
Tue 12:28:54 AM 29.9935 -95.3108 270° West 143 165 200 -800 Descending FlightAware ADS-B
Tue 12:29:11 AM 29.9934 -95.3238 269° West 143 165 -706 Descending FlightAware ADS-B

Login

Don't have an account? Register now (free) for customized features, flight alerts, and more!